Time;durP1;ratioP1;P1;durP2;ratioP2;P2;SDS_P1;SDS_P2;PMS_P1;PMS_P2;Temp;Humidity;BMP_temperature;BMP_pressure;BME280_temperature;BME280_humidity;BME280_pressure;Samples;Min_cycle;Max_cycle;Signal;HPM_P1;HPM_P2
2023/02/10 00:00:16;;;;;;;41.47;24.90;;;4.30;99.90;;;;;;5061223;28;20211;-84
2023/02/10 00:02:43;;;;;;;44.90;27.77;;;4.40;99.90;;;;;;5054224;28;20262;-84
2023/02/10 00:05:09;;;;;;;45.03;28.27;;;4.40;99.90;;;;;;5052437;28;20234;-83
2023/02/10 00:07:36;;;;;;;56.80;29.52;;;4.30;99.90;;;;;;5049061;28;20275;-84
2023/02/10 00:10:04;;;;;;;49.75;29.13;;;4.50;99.90;;;;;;5051539;28;20239;-84
2023/02/10 00:12:32;;;;;;;50.58;29.90;;;4.40;99.90;;;;;;5051847;28;20205;-84
2023/02/10 00:14:59;;;;;;;54.78;28.10;;;4.40;99.90;;;;;;5053796;28;20665;-84
2023/02/10 00:17:25;;;;;;;54.80;29.58;;;4.40;99.90;;;;;;5055178;28;20219;-84
2023/02/10 00:19:52;;;;;;;52.20;29.50;;;4.50;99.90;;;;;;5057204;28;20200;-83
2023/02/10 00:22:19;;;;;;;64.65;30.88;;;4.50;99.90;;;;;;5056090;28;20235;-83
2023/02/10 00:24:46;;;;;;;48.22;29.08;;;4.60;99.90;;;;;;5055868;28;20232;-84
2023/02/10 00:27:13;;;;;;;46.22;27.42;;;4.50;99.90;;;;;;5055292;28;20204;-84
2023/02/10 00:29:41;;;;;;;48.03;27.45;;;4.50;99.90;;;;;;5058774;28;20211;-84
2023/02/10 00:32:10;;;;;;;42.90;27.10;;;4.60;99.90;;;;;;5061500;28;20268;-84
2023/02/10 00:34:37;;;;;;;50.88;30.15;;;4.60;99.90;;;;;;5048607;28;20226;-85
2023/02/10 00:37:03;;;;;;;54.72;28.85;;;4.60;99.90;;;;;;5048747;28;20292;-84
2023/02/10 00:39:30;;;;;;;51.15;28.50;;;4.70;99.90;;;;;;5043290;28;20228;-84
2023/02/10 00:41:57;;;;;;;54.13;29.23;;;4.70;99.90;;;;;;5041436;28;20225;-84
2023/02/10 00:44:24;;;;;;;51.35;29.58;;;4.70;99.90;;;;;;5044642;28;20232;-85
2023/02/10 00:46:52;;;;;;;51.90;27.95;;;4.80;99.90;;;;;;5042760;28;20230;-84
2023/02/10 00:49:19;;;;;;;55.90;30.13;;;4.80;99.90;;;;;;5056477;28;20205;-83
2023/02/10 00:51:47;;;;;;;47.83;27.40;;;4.80;99.90;;;;;;5051258;28;20254;-84
2023/02/10 00:54:14;;;;;;;52.60;27.15;;;4.80;99.90;;;;;;5047168;28;20205;-83
2023/02/10 00:56:41;;;;;;;55.78;29.30;;;4.80;99.90;;;;;;5050238;28;20236;-84
2023/02/10 00:59:07;;;;;;;51.33;29.15;;;4.70;99.90;;;;;;5050670;28;20212;-86
2023/02/10 01:01:35;;;;;;;51.47;28.45;;;4.80;99.90;;;;;;5051541;28;20228;-83
2023/02/10 01:04:04;;;;;;;45.33;27.75;;;4.70;99.90;;;;;;5045979;28;20208;-84
2023/02/10 01:06:31;;;;;;;52.47;27.40;;;4.70;99.90;;;;;;5063840;28;20216;-83
2023/02/10 01:08:58;;;;;;;42.78;26.55;;;4.80;99.90;;;;;;5049034;28;20272;-85
2023/02/10 01:11:24;;;;;;;49.67;28.15;;;4.90;99.90;;;;;;5044268;28;20206;-84
2023/02/10 01:13:51;;;;;;;55.85;27.80;;;4.80;99.90;;;;;;5049898;28;20223;-84
2023/02/10 01:16:28;;;;;;;54.97;28.58;;;4.70;99.90;;;;;;5048720;28;20219;-84
2023/02/10 01:18:55;;;;;;;49.13;25.80;;;4.70;99.90;;;;;;5059855;28;20231;-83
2023/02/10 01:21:23;;;;;;;42.70;26.33;;;4.90;99.90;;;;;;5059433;28;20211;-83
2023/02/10 01:23:50;;;;;;;56.17;29.40;;;4.70;99.90;;;;;;5059092;28;20219;-83
2023/02/10 01:26:17;;;;;;;50.25;27.58;;;4.70;99.90;;;;;;5047850;28;20311;-84
2023/02/10 01:28:44;;;;;;;51.53;29.08;;;4.70;99.90;;;;;;5040344;28;20200;-84
2023/02/10 01:31:13;;;;;;;50.33;27.25;;;4.70;99.90;;;;;;5040620;28;20291;-85
2023/02/10 01:33:41;;;;;;;46.30;27.48;;;4.70;99.90;;;;;;5045591;28;20272;-84
2023/02/10 01:36:11;;;;;;;45.83;25.35;;;4.70;99.90;;;;;;5041016;28;20744;-85
2023/02/10 01:38:40;;;;;;;54.08;28.08;;;4.70;99.90;;;;;;5043736;28;20204;-83
2023/02/10 01:41:07;;;;;;;37.22;24.20;;;4.70;99.90;;;;;;5044079;28;20563;-83
2023/02/10 01:43:50;;;;;;;50.45;27.92;;;4.60;99.90;;;;;;5050588;28;20204;-84
2023/02/10 01:46:16;;;;;;;42.85;26.63;;;4.60;99.90;;;;;;5039679;28;20267;-86
2023/02/10 01:48:43;;;;;;;44.38;26.85;;;4.60;99.90;;;;;;5044007;28;20268;-84
2023/02/10 01:51:11;;;;;;;45.08;25.67;;;4.50;99.90;;;;;;5055204;28;20204;-85
2023/02/10 01:53:40;;;;;;;42.00;25.70;;;4.50;99.90;;;;;;5051866;28;20966;-84
2023/02/10 01:56:07;;;;;;;48.35;26.65;;;4.40;99.90;;;;;;5051552;28;20231;-83
2023/02/10 01:58:35;;;;;;;49.40;26.65;;;4.40;99.90;;;;;;5055542;28;20263;-83
2023/02/10 02:01:02;;;;;;;43.78;27.42;;;4.40;99.90;;;;;;5052633;28;20244;-82
2023/02/10 02:03:29;;;;;;;49.78;27.75;;;4.40;99.90;;;;;;5060158;28;20310;-84
2023/02/10 02:05:56;;;;;;;69.07;27.30;;;4.40;99.90;;;;;;5049462;28;20240;-83
2023/02/10 02:08:26;;;;;;;46.80;27.58;;;4.40;99.90;;;;;;5054282;28;20199;-84
2023/02/10 02:11:17;;;;;;;46.28;26.55;;;4.40;99.90;;;;;;5045941;28;20211;-83
2023/02/10 02:13:57;;;;;;;41.90;27.27;;;4.40;99.90;;;;;;5045650;28;20267;-83
2023/02/10 02:16:35;;;;;;;43.72;27.73;;;4.40;99.90;;;;;;5050393;28;20228;-84
2023/02/10 02:19:09;;;;;;;43.17;28.67;;;4.40;99.90;;;;;;5044889;28;20208;-85
2023/02/10 02:21:55;;;;;;;49.58;29.08;;;4.30;99.90;;;;;;5047414;28;20311;-85
2023/02/10 02:24:44;;;;;;;49.30;28.00;;;4.30;99.90;;;;;;5052974;28;20199;-83
2023/02/10 02:27:35;;;;;;;45.72;28.88;;;4.30;99.90;;;;;;5045393;28;20231;-83
2023/02/10 02:30:28;;;;;;;46.80;25.83;;;4.30;99.90;;;;;;5047966;28;20228;-84
2023/02/10 02:33:01;;;;;;;52.50;28.52;;;4.30;99.90;;;;;;5018638;28;20295;-84
2023/02/10 02:35:33;;;;;;;51.80;27.85;;;4.30;99.90;;;;;;5041555;28;20628;-84
2023/02/10 02:38:00;;;;;;;49.03;27.30;;;4.30;99.90;;;;;;5040110;28;20650;-84
2023/02/10 02:40:27;;;;;;;51.50;25.50;;;4.30;99.90;;;;;;5037217;28;20239;-84
2023/02/10 02:42:53;;;;;;;49.10;28.10;;;4.20;99.90;;;;;;5056003;28;20263;-84
2023/02/10 02:45:27;;;;;;;53.72;28.60;;;4.20;99.90;;;;;;5045804;28;20248;-84
2023/02/10 02:48:09;;;;;;;58.83;29.05;;;4.10;99.90;;;;;;5032745;28;20197;-84
2023/02/10 02:50:39;;;;;;;58.92;29.42;;;4.10;99.90;;;;;;5042448;28;20204;-85
2023/02/10 02:53:27;;;;;;;49.45;28.88;;;4.00;99.90;;;;;;5043314;28;20204;-83
2023/02/10 02:56:02;;;;;;;54.38;27.92;;;4.00;99.90;;;;;;5044258;28;20310;-85
2023/02/10 02:58:36;;;;;;;57.30;30.40;;;3.90;99.90;;;;;;5048061;28;20259;-84
2023/02/10 03:01:08;;;;;;;55.80;29.65;;;3.90;99.90;;;;;;5058662;28;20232;-84
2023/02/10 03:03:37;;;;;;;46.67;29.45;;;3.90;99.90;;;;;;5053360;28;20204;-85
2023/02/10 03:06:04;;;;;;;60.75;30.05;;;3.70;99.90;;;;;;5048433;28;20259;-84
2023/02/10 03:08:34;;;;;;;59.35;30.50;;;3.70;99.90;;;;;;5041613;28;20243;-85
2023/02/10 03:11:00;;;;;;;59.35;31.33;;;3.60;99.90;;;;;;5046034;28;20275;-85
2023/02/10 03:13:27;;;;;;;55.10;31.88;;;3.50;99.90;;;;;;5043857;28;20287;-85
2023/02/10 03:15:54;;;;;;;57.22;31.40;;;3.50;99.90;;;;;;5050042;28;20219;-84
2023/02/10 03:18:21;;;;;;;62.00;31.90;;;3.50;99.90;;;;;;5050601;28;20287;-85
2023/02/10 03:20:49;;;;;;;55.20;31.83;;;3.40;99.90;;;;;;5045558;28;20219;-85
2023/02/10 03:23:16;;;;;;;57.92;33.40;;;3.40;99.90;;;;;;5046600;28;20282;-86
2023/02/10 03:25:45;;;;;;;62.83;34.30;;;3.30;99.90;;;;;;5043118;28;20656;-83
2023/02/10 03:28:12;;;;;;;73.38;36.20;;;3.20;99.90;;;;;;5042422;28;20291;-84
2023/02/10 03:30:41;;;;;;;61.60;35.47;;;3.20;99.90;;;;;;5044262;28;20295;-85
2023/02/10 03:33:08;;;;;;;55.42;33.78;;;3.20;99.90;;;;;;5043609;28;20201;-84
2023/02/10 03:35:38;;;;;;;58.25;34.17;;;3.20;99.90;;;;;;5044922;28;20258;-85
2023/02/10 03:38:06;;;;;;;62.63;36.60;;;3.20;99.90;;;;;;5051463;28;20217;-84
2023/02/10 03:40:33;;;;;;;63.63;34.63;;;3.20;99.90;;;;;;5054512;28;20204;-84
2023/02/10 03:43:00;;;;;;;69.03;35.63;;;3.20;99.90;;;;;;5047046;28;20292;-84
2023/02/10 03:45:27;;;;;;;57.45;33.90;;;3.20;99.90;;;;;;5044743;28;20751;-84
2023/02/10 03:47:53;;;;;;;58.72;34.83;;;3.20;99.90;;;;;;5039780;28;20204;-84
2023/02/10 03:50:20;;;;;;;67.20;37.72;;;3.20;99.90;;;;;;5050448;28;20205;-85
2023/02/10 03:52:47;;;;;;;67.07;35.22;;;3.20;99.90;;;;;;5045570;28;20208;-84
2023/02/10 03:55:17;;;;;;;70.72;35.08;;;3.30;99.90;;;;;;5038308;28;20288;-85
2023/02/10 03:57:44;;;;;;;64.60;33.72;;;3.10;99.90;;;;;;5044776;28;20661;-84
2023/02/10 04:00:13;;;;;;;76.97;36.42;;;3.10;99.90;;;;;;5045006;28;20204;-84
2023/02/10 04:02:40;;;;;;;67.82;36.58;;;3.10;99.90;;;;;;5043388;28;20224;-84
2023/02/10 04:05:07;;;;;;;66.97;36.05;;;3.10;99.90;;;;;;5050415;28;20740;-83
2023/02/10 04:07:34;;;;;;;63.40;35.55;;;3.10;99.90;;;;;;5058063;28;20290;-84
2023/02/10 04:10:01;;;;;;;63.42;34.22;;;3.00;99.90;;;;;;5057722;28;20259;-83
2023/02/10 04:12:29;;;;;;;61.65;34.15;;;3.00;99.90;;;;;;5060915;28;20184;-83
2023/02/10 04:14:56;;;;;;;55.78;34.03;;;3.00;99.90;;;;;;5059933;28;20212;-84
2023/02/10 04:17:23;;;;;;;69.10;36.42;;;3.00;99.90;;;;;;5054524;28;20231;-84
2023/02/10 04:19:50;;;;;;;63.38;35.85;;;3.00;99.90;;;;;;5044181;28;20661;-83
2023/02/10 04:22:17;;;;;;;63.97;34.28;;;3.00;99.90;;;;;;5038400;28;20236;-84
2023/02/10 04:24:43;;;;;;;72.70;34.35;;;3.10;99.90;;;;;;5034481;28;20279;-84
2023/02/10 04:27:10;;;;;;;77.10;35.97;;;3.10;99.90;;;;;;5042364;28;20212;-85
2023/02/10 04:29:40;;;;;;;70.47;37.42;;;3.10;99.90;;;;;;5039555;28;20265;-85
2023/02/10 04:32:07;;;;;;;60.47;33.22;;;3.10;99.90;;;;;;5037790;28;20215;-85
2023/02/10 04:34:34;;;;;;;61.13;34.95;;;3.10;99.90;;;;;;5041705;28;20201;-84
2023/02/10 04:37:01;;;;;;;60.45;34.17;;;3.10;99.90;;;;;;5039726;28;20311;-83
2023/02/10 04:39:28;;;;;;;66.30;31.58;;;3.10;99.90;;;;;;5044522;28;20204;-83
2023/02/10 04:41:55;;;;;;;74.97;34.17;;;3.00;99.90;;;;;;5049015;28;20216;-84
2023/02/10 04:44:21;;;;;;;63.83;35.78;;;3.00;99.90;;;;;;5055936;28;20208;-84
2023/02/10 04:46:50;;;;;;;61.60;34.60;;;3.00;99.90;;;;;;5054748;28;20263;-83
2023/02/10 04:49:17;;;;;;;63.20;32.75;;;3.00;99.90;;;;;;5051103;28;20211;-83
2023/02/10 04:51:44;;;;;;;64.00;34.45;;;3.00;99.90;;;;;;5045458;28;20212;-84
2023/02/10 04:54:11;;;;;;;74.72;34.70;;;3.00;99.90;;;;;;5051466;28;20207;-84
2023/02/10 04:56:38;;;;;;;57.15;33.53;;;3.00;99.90;;;;;;5045078;28;20237;-84
2023/02/10 04:59:05;;;;;;;69.60;32.33;;;2.90;99.90;;;;;;5045768;28;20215;-83
2023/02/10 05:01:32;;;;;;;66.40;35.55;;;2.90;99.90;;;;;;5043691;28;20196;-84
2023/02/10 05:04:00;;;;;;;61.03;36.63;;;2.90;99.90;;;;;;5053138;28;20217;-85
2023/02/10 05:06:27;;;;;;;57.10;32.92;;;2.90;99.90;;;;;;5052389;28;20220;-83
2023/02/10 05:08:54;;;;;;;71.13;37.78;;;2.90;99.90;;;;;;5056889;28;20211;-84
2023/02/10 05:11:20;;;;;;;62.42;32.05;;;2.90;99.90;;;;;;5059217;28;20264;-83
2023/02/10 05:13:47;;;;;;;57.75;34.30;;;2.90;99.90;;;;;;5049957;28;20542;-84
2023/02/10 05:16:15;;;;;;;63.85;34.83;;;2.90;99.90;;;;;;5051988;28;20295;-84
2023/02/10 05:18:42;;;;;;;68.25;36.35;;;3.00;99.90;;;;;;5045936;28;20227;-83
2023/02/10 05:21:13;;;;;;;68.18;32.72;;;2.80;99.90;;;;;;5041277;28;20224;-85
2023/02/10 05:23:41;;;;;;;64.07;34.42;;;2.80;99.90;;;;;;5040353;28;20605;-84
2023/02/10 05:26:08;;;;;;;76.28;38.63;;;2.80;99.90;;;;;;5055971;28;20240;-83
2023/02/10 05:28:35;;;;;;;68.32;36.05;;;2.80;99.90;;;;;;5060556;28;20210;-83
2023/02/10 05:31:03;;;;;;;61.42;35.72;;;2.80;99.90;;;;;;5047430;28;20208;-85
2023/02/10 05:33:30;;;;;;;55.47;34.63;;;2.80;99.90;;;;;;5041664;28;20576;-83
2023/02/10 05:35:57;;;;;;;59.78;35.90;;;2.80;99.90;;;;;;5055217;28;20302;-84
2023/02/10 05:38:26;;;;;;;65.10;36.88;;;2.80;99.90;;;;;;5048963;28;20233;-84
2023/02/10 05:40:53;;;;;;;65.80;33.97;;;2.80;99.90;;;;;;5040746;28;20211;-84
2023/02/10 05:43:20;;;;;;;58.92;33.03;;;2.80;99.90;;;;;;5044873;28;20226;-83
2023/02/10 05:45:47;;;;;;;62.28;33.28;;;2.80;99.90;;;;;;5051014;28;20288;-84
2023/02/10 05:48:14;;;;;;;67.38;36.25;;;2.80;99.90;;;;;;5044777;28;20196;-84
2023/02/10 05:50:41;;;;;;;72.82;35.78;;;2.80;99.90;;;;;;5051246;28;20208;-85
2023/02/10 05:53:09;;;;;;;73.65;34.53;;;2.80;99.90;;;;;;5052606;28;20215;-84
2023/02/10 05:55:37;;;;;;;65.07;34.85;;;2.80;99.90;;;;;;5054555;28;20219;-84
2023/02/10 05:58:04;;;;;;;70.20;35.28;;;2.80;99.90;;;;;;5044580;28;20390;-84
2023/02/10 06:00:34;;;;;;;71.47;35.25;;;2.80;99.90;;;;;;5038281;28;20307;-84
2023/02/10 06:03:01;;;;;;;60.67;33.33;;;2.80;99.90;;;;;;5052153;28;20224;-84
2023/02/10 06:05:28;;;;;;;70.53;37.10;;;2.80;99.90;;;;;;5045318;28;20506;-84
2023/02/10 06:07:55;;;;;;;60.33;33.40;;;2.80;99.90;;;;;;5042514;28;20207;-84
2023/02/10 06:10:22;;;;;;;60.90;33.78;;;2.80;99.90;;;;;;5043847;28;20210;-84
2023/02/10 06:12:51;;;;;;;79.32;34.85;;;2.80;99.90;;;;;;5048131;28;20251;-85
2023/02/10 06:15:18;;;;;;;62.05;34.45;;;2.70;99.90;;;;;;5038052;28;20250;-84
2023/02/10 06:17:45;;;;;;;60.70;33.30;;;2.80;99.90;;;;;;5041061;28;20264;-86
2023/02/10 06:20:12;;;;;;;63.40;32.83;;;2.70;99.90;;;;;;5041043;28;20195;-82
2023/02/10 06:22:39;;;;;;;69.15;33.92;;;2.70;99.90;;;;;;5057174;28;20276;-88
2023/02/10 06:25:06;;;;;;;61.75;36.03;;;2.70;99.90;;;;;;5056248;28;20280;-83
2023/02/10 06:27:33;;;;;;;65.85;35.83;;;2.70;99.90;;;;;;5037711;28;20296;-83
2023/02/10 06:30:01;;;;;;;60.67;33.88;;;2.70;99.90;;;;;;5043513;28;20215;-85
2023/02/10 06:32:28;;;;;;;60.42;34.17;;;2.80;99.90;;;;;;5045133;28;20690;-84
2023/02/10 06:34:55;;;;;;;65.32;35.60;;;2.70;99.90;;;;;;5052729;28;20704;-85
2023/02/10 06:37:22;;;;;;;62.95;32.00;;;2.80;99.90;;;;;;5044815;28;20235;-86
2023/02/10 06:39:49;;;;;;;58.40;33.97;;;2.70;99.90;;;;;;5042653;28;20215;-87
2023/02/10 06:42:16;;;;;;;65.07;33.17;;;2.70;99.90;;;;;;5043011;28;20377;-87
2023/02/10 06:48:01;;;;;;;62.67;31.40;;;2.70;99.90;;;;;;5040039;28;20804;-87
2023/02/10 06:53:09;;;;;;;60.20;32.22;;;2.80;99.90;;;;;;5038146;28;20207;-88
2023/02/10 06:55:36;;;;;;;61.10;33.67;;;2.70;99.90;;;;;;5044146;28;20231;-85
2023/02/10 06:58:05;;;;;;;69.28;36.00;;;2.70;99.90;;;;;;5046246;28;20740;-82
2023/02/10 07:00:32;;;;;;;59.08;34.38;;;2.70;99.90;;;;;;5054344;28;20295;-84
2023/02/10 07:03:01;;;;;;;62.90;31.67;;;2.80;99.90;;;;;;5046071;28;20216;-86
2023/02/10 07:05:28;;;;;;;63.85;33.70;;;2.80;99.90;;;;;;5038927;28;20697;-87
2023/02/10 07:07:58;;;;;;;56.25;29.48;;;2.80;99.90;;;;;;5053133;28;20667;-85
2023/02/10 07:10:26;;;;;;;57.55;34.10;;;2.80;99.90;;;;;;5040448;28;20213;-87
2023/02/10 07:12:53;;;;;;;50.20;32.53;;;2.80;99.90;;;;;;5046226;28;20201;-85
2023/02/10 07:15:22;;;;;;;62.28;34.28;;;2.90;99.90;;;;;;5042552;28;20273;-86
2023/02/10 07:17:50;;;;;;;63.67;32.83;;;2.90;99.90;;;;;;5044637;28;20211;-85
2023/02/10 07:20:19;;;;;;;67.80;32.97;;;2.90;99.90;;;;;;5060435;28;20242;-85
2023/02/10 07:22:46;;;;;;;59.67;30.42;;;2.90;99.90;;;;;;5044893;28;20258;-85
2023/02/10 07:25:13;;;;;;;65.50;33.88;;;2.90;99.90;;;;;;5054158;28;20498;-85
2023/02/10 07:27:43;;;;;;;53.75;31.20;;;3.00;99.90;;;;;;5050365;28;20231;-87
2023/02/10 07:30:12;;;;;;;70.80;32.90;;;3.00;99.90;;;;;;5049044;28;20685;-88
2023/02/10 07:32:41;;;;;;;51.53;27.55;;;3.10;99.90;;;;;;5050611;28;20200;-84
2023/02/10 07:35:08;;;;;;;54.85;30.38;;;3.30;99.90;;;;;;5047464;28;20222;-85
2023/02/10 07:37:37;;;;;;;51.40;29.83;;;3.30;99.90;;;;;;5049509;28;20241;-85
2023/02/10 07:40:05;;;;;;;53.05;28.10;;;3.40;99.90;;;;;;5046423;28;20207;-85
2023/02/10 07:42:31;;;;;;;50.78;29.40;;;3.40;99.90;;;;;;5045874;28;20287;-85
2023/02/10 07:44:59;;;;;;;46.17;28.85;;;3.40;99.90;;;;;;5049975;28;20266;-86
2023/02/10 07:47:25;;;;;;;58.42;26.90;;;3.50;99.90;;;;;;5044785;28;20220;-85
2023/02/10 07:49:53;;;;;;;47.53;27.80;;;3.60;99.90;;;;;;5053588;28;20249;-86
2023/02/10 07:52:21;;;;;;;47.28;26.15;;;3.90;99.90;;;;;;5046045;28;20192;-85
2023/02/10 07:54:50;;;;;;;36.65;24.45;;;4.30;99.90;;;;;;5051501;28;20203;-88
2023/02/10 07:57:17;;;;;;;44.75;23.58;;;4.30;99.90;;;;;;5058508;28;20200;-86
2023/02/10 07:59:44;;;;;;;39.83;22.45;;;4.80;99.90;;;;;;5057483;28;20281;-85
2023/02/10 08:02:13;;;;;;;36.03;20.95;;;5.40;99.90;;;;;;5055784;28;20197;-84
2023/02/10 08:04:40;;;;;;;33.00;20.17;;;5.70;99.90;;;;;;5045267;28;20207;-83
2023/02/10 08:07:07;;;;;;;33.55;20.75;;;6.10;99.90;;;;;;5046479;28;20199;-85
2023/02/10 08:09:35;;;;;;;32.50;20.35;;;6.00;99.90;;;;;;5038737;28;20218;-84
2023/02/10 08:12:03;;;;;;;33.38;19.67;;;6.20;99.90;;;;;;5041474;28;20233;-85
2023/02/10 08:14:30;;;;;;;30.70;18.73;;;6.60;99.90;;;;;;5040099;28;20217;-85
2023/02/10 08:16:57;;;;;;;33.65;19.73;;;6.70;99.90;;;;;;5044610;28;20298;-87
2023/02/10 08:19:24;;;;;;;36.85;18.55;;;7.00;99.90;;;;;;5048267;28;20212;-86
2023/02/10 08:21:51;;;;;;;29.52;19.30;;;7.20;99.90;;;;;;5047592;28;20307;-85
2023/02/10 08:24:19;;;;;;;29.63;19.60;;;7.60;99.90;;;;;;5040657;28;20220;-86
2023/02/10 08:26:46;;;;;;;32.67;18.73;;;7.80;99.90;;;;;;5041535;28;20257;-86
2023/02/10 08:29:17;;;;;;;31.85;18.00;;;7.70;99.90;;;;;;5049668;28;20292;-86
2023/02/10 08:31:44;;;;;;;26.05;16.55;;;7.60;99.90;;;;;;5053120;28;20196;-86
2023/02/10 08:34:17;;;;;;;30.33;16.33;;;8.00;99.90;;;;;;5036590;28;20260;-86
2023/02/10 08:36:45;;;;;;;30.30;19.42;;;8.30;99.90;;;;;;5051023;28;20285;-86
2023/02/10 08:39:12;;;;;;;32.65;18.80;;;8.40;99.90;;;;;;5040483;28;20198;-87
2023/02/10 08:41:40;;;;;;;27.30;15.20;;;8.80;99.90;;;;;;5047369;28;20235;-87
2023/02/10 08:44:08;;;;;;;25.73;15.88;;;9.30;99.90;;;;;;5036212;28;20368;-88
2023/02/10 08:46:36;;;;;;;29.00;16.20;;;9.00;99.90;;;;;;5053778;28;20228;-85
2023/02/10 08:49:03;;;;;;;24.20;16.98;;;9.20;99.90;;;;;;5036848;28;20225;-85
2023/02/10 08:51:32;;;;;;;31.27;15.13;;;9.10;99.90;;;;;;5037966;28;20262;-85
2023/02/10 08:54:00;;;;;;;32.08;16.45;;;9.20;99.90;;;;;;5035809;28;20231;-86
2023/02/10 08:56:27;;;;;;;30.15;16.23;;;9.80;99.90;;;;;;5036240;28;20250;-84
2023/02/10 08:58:54;;;;;;;23.17;15.73;;;10.10;99.90;;;;;;5039806;28;20235;-83
2023/02/10 09:01:25;;;;;;;23.60;14.80;;;10.40;99.90;;;;;;5043818;28;20202;-86
2023/02/10 09:03:57;;;;;;;22.65;13.98;;;10.10;99.90;;;;;;5038346;28;20228;-85
2023/02/10 09:06:26;;;;;;;25.15;16.27;;;10.20;99.90;;;;;;5042793;28;20808;-85
2023/02/10 09:08:54;;;;;;;27.17;15.50;;;9.80;99.90;;;;;;5044701;28;20192;-86
2023/02/10 09:11:23;;;;;;;25.30;15.70;;;10.20;99.90;;;;;;5044827;28;20213;-86
2023/02/10 09:13:51;;;;;;;25.80;16.30;;;9.80;99.90;;;;;;5044667;28;20202;-86
2023/02/10 09:16:28;;;;;;;26.30;14.52;;;9.80;99.90;;;;;;5040220;28;20263;-86
2023/02/10 09:18:59;;;;;;;25.75;14.77;;;9.70;99.90;;;;;;5039251;28;20227;-87
2023/02/10 09:21:27;;;;;;;28.08;15.93;;;9.90;99.90;;;;;;5043530;28;20215;-87
2023/02/10 09:23:54;;;;;;;21.23;14.27;;;9.80;99.90;;;;;;5041428;28;20245;-86
2023/02/10 09:26:21;;;;;;;26.70;17.02;;;10.20;99.90;;;;;;5043530;28;20578;-86
2023/02/10 09:28:54;;;;;;;23.08;15.07;;;10.30;99.90;;;;;;5043306;28;20210;-86
2023/02/10 09:31:34;;;;;;;30.80;15.80;;;10.20;99.90;;;;;;5041933;28;20208;-87
2023/02/10 09:34:39;;;;;;;27.10;15.32;;;10.10;99.90;;;;;;5044062;28;20291;-86
2023/02/10 09:37:23;;;;;;;21.52;15.40;;;10.90;99.90;;;;;;5046687;28;20278;-86
2023/02/10 09:39:53;;;;;;;25.40;13.95;;;11.30;99.90;;;;;;5055379;28;20199;-86
2023/02/10 09:42:32;;;;;;;22.48;14.43;;;11.40;99.90;;;;;;5057606;28;20190;-85
2023/02/10 09:45:10;;;;;;;24.52;15.55;;;11.70;99.90;;;;;;5057889;28;20243;-85
2023/02/10 09:47:48;;;;;;;23.63;14.95;;;11.90;99.90;;;;;;5077749;22;20724;-74
2023/02/10 09:50:41;;;;;;;24.52;15.55;;;11.20;99.90;;;;;;5070789;28;20250;-74
2023/02/10 09:53:13;;;;;;;20.27;14.65;;;10.60;99.90;;;;;;5071201;28;20236;-72
2023/02/10 09:55:44;;;;;;;27.75;15.07;;;10.90;99.90;;;;;;5072238;28;20220;-73
2023/02/10 09:58:18;;;;;;;28.50;14.40;;;11.30;99.90;;;;;;5067760;28;20248;-74
2023/02/10 10:00:48;;;;;;;25.00;14.38;;;11.10;99.90;;;;;;5064330;28;20225;-76
2023/02/10 10:03:18;;;;;;;30.80;15.30;;;11.30;99.90;;;;;;5073212;28;20250;-75
2023/02/10 10:05:56;;;;;;;21.48;14.63;;;11.30;99.90;;;;;;5063034;28;20214;-73
2023/02/10 10:08:40;;;;;;;21.33;14.25;;;11.30;99.90;;;;;;5067372;28;20698;-74
2023/02/10 10:11:24;;;;;;;22.70;14.98;;;11.30;99.90;;;;;;5066189;28;20281;-74
2023/02/10 10:13:54;;;;;;;27.98;15.80;;;11.40;99.90;;;;;;5069056;28;20244;-74
2023/02/10 10:16:42;;;;;;;27.98;16.10;;;11.00;99.90;;;;;;5070413;28;20253;-75
2023/02/10 10:19:18;;;;;;;23.85;14.50;;;11.20;99.90;;;;;;5072228;28;20197;-74
2023/02/10 10:21:52;;;;;;;25.08;16.50;;;10.90;99.90;;;;;;5067252;28;20226;-74
2023/02/10 10:24:39;;;;;;;28.15;15.77;;;10.60;99.90;;;;;;5062077;28;20276;-75
2023/02/10 10:27:17;;;;;;;32.05;17.50;;;10.10;99.90;;;;;;5068438;28;20266;-74
2023/02/10 10:29:52;;;;;;;22.95;14.88;;;10.00;99.90;;;;;;5074587;28;20227;-75
2023/02/10 10:32:27;;;;;;;25.70;16.17;;;9.90;99.90;;;;;;5060198;28;20237;-75
2023/02/10 10:34:56;;;;;;;23.73;16.63;;;9.90;99.90;;;;;;5063656;28;20239;-75
2023/02/10 10:37:25;;;;;;;33.45;18.02;;;9.70;99.90;;;;;;5058201;28;20265;-74
2023/02/10 10:39:58;;;;;;;25.27;15.27;;;9.80;99.90;;;;;;5056725;28;20199;-76
2023/02/10 10:42:29;;;;;;;24.45;15.20;;;9.40;99.90;;;;;;5062809;28;20242;-73
2023/02/10 10:45:03;;;;;;;23.10;15.68;;;9.20;99.90;;;;;;5059044;28;20316;-76
2023/02/10 10:47:39;;;;;;;29.58;15.85;;;9.30;99.90;;;;;;5054257;28;20637;-75
2023/02/10 10:50:07;;;;;;;30.08;16.92;;;9.20;99.90;;;;;;5062045;28;20652;-74
2023/02/10 10:52:37;;;;;;;26.67;16.77;;;9.20;99.90;;;;;;5066803;28;20237;-75
2023/02/10 10:55:13;;;;;;;29.55;16.92;;;9.30;99.90;;;;;;5055556;28;20192;-78
2023/02/10 10:57:41;;;;;;;30.35;16.90;;;9.40;99.90;;;;;;5060164;28;20664;-75
2023/02/10 11:00:18;;;;;;;23.85;16.80;;;9.20;99.90;;;;;;5052701;28;20191;-74
2023/02/10 11:02:56;;;;;;;22.45;16.33;;;8.90;99.90;;;;;;5054475;28;20206;-74
2023/02/10 11:05:28;;;;;;;22.58;15.57;;;8.70;99.90;;;;;;5058672;28;20299;-74
2023/02/10 11:07:57;;;;;;;27.77;16.50;;;8.60;99.90;;;;;;5065995;28;20553;-73
2023/02/10 11:10:33;;;;;;;35.33;16.80;;;8.50;99.90;;;;;;5063667;28;20195;-74
2023/02/10 11:13:02;;;;;;;36.20;17.95;;;8.60;99.90;;;;;;5060148;28;20528;-74
2023/02/10 11:15:34;;;;;;;31.92;17.90;;;8.50;99.90;;;;;;5062874;28;20230;-75
2023/02/10 11:18:02;;;;;;;27.27;16.65;;;8.30;99.90;;;;;;5067454;28;20281;-74
2023/02/10 11:20:31;;;;;;;32.95;21.05;;;8.20;99.90;;;;;;5065368;28;20201;-75
2023/02/10 11:22:59;;;;;;;31.20;18.02;;;8.00;99.90;;;;;;5065199;28;20240;-75
2023/02/10 11:25:30;;;;;;;25.00;16.33;;;8.20;99.90;;;;;;5066781;28;20230;-74
2023/02/10 11:27:58;;;;;;;26.30;16.40;;;8.60;99.90;;;;;;5063482;28;20194;-74
2023/02/10 11:30:28;;;;;;;34.42;18.20;;;8.70;99.90;;;;;;5059193;28;20290;-75
2023/02/10 11:32:55;;;;;;;29.10;16.70;;;8.60;99.90;;;;;;5068944;28;20234;-74
2023/02/10 11:35:23;;;;;;;31.50;16.67;;;8.40;99.90;;;;;;5063834;28;20216;-76
2023/02/10 11:37:54;;;;;;;28.80;17.20;;;8.30;99.90;;;;;;5064865;28;20252;-73
2023/02/10 11:40:24;;;;;;;34.25;18.75;;;8.20;99.90;;;;;;5072082;28;20195;-74
2023/02/10 11:42:55;;;;;;;28.27;17.50;;;8.30;99.90;;;;;;5075132;28;20241;-75
2023/02/10 11:45:27;;;;;;;26.05;15.30;;;8.20;99.90;;;;;;5073875;28;20252;-74
2023/02/10 11:48:03;;;;;;;27.08;16.98;;;8.40;99.90;;;;;;5068771;28;20288;-74
2023/02/10 11:50:33;;;;;;;29.63;17.52;;;8.20;99.90;;;;;;5059612;28;20229;-73
2023/02/10 11:53:00;;;;;;;29.23;17.23;;;7.90;99.90;;;;;;5061221;28;20195;-74
2023/02/10 11:55:34;;;;;;;31.00;17.23;;;7.90;99.90;;;;;;5061353;28;20250;-75
2023/02/10 12:01:10;;;;;;;35.85;17.50;;;8.20;99.90;;;;;;5073826;28;20205;-75
2023/02/10 12:03:53;;;;;;;25.90;16.00;;;8.10;99.90;;;;;;5071940;28;20195;-75
2023/02/10 12:06:28;;;;;;;30.05;16.42;;;8.10;99.90;;;;;;5063466;28;20322;-75
2023/02/10 12:08:59;;;;;;;21.67;14.65;;;7.90;99.90;;;;;;5064632;28;20205;-75
2023/02/10 12:11:36;;;;;;;21.90;13.70;;;8.10;99.90;;;;;;5069037;28;20542;-74
2023/02/10 12:14:18;;;;;;;23.40;15.63;;;8.10;99.90;;;;;;5060635;28;20249;-75
2023/02/10 12:16:52;;;;;;;31.45;16.75;;;8.00;99.90;;;;;;5070183;28;20261;-73
2023/02/10 12:19:32;;;;;;;29.83;16.40;;;7.90;99.90;;;;;;5063745;28;20198;-77
2023/02/10 12:22:07;;;;;;;35.17;17.38;;;8.10;99.90;;;;;;5062255;28;20235;-75
2023/02/10 12:25:04;;;;;;;29.13;18.10;;;8.00;99.90;;;;;;5070711;28;20187;-75
2023/02/10 12:27:43;;;;;;;31.73;17.90;;;7.80;99.90;;;;;;5065202;28;20559;-75
2023/02/10 12:30:26;;;;;;;31.17;17.92;;;7.80;99.90;;;;;;5069808;28;20226;-74
2023/02/10 12:33:03;;;;;;;27.10;18.13;;;7.60;99.90;;;;;;5063246;28;20238;-74
2023/02/10 12:35:43;;;;;;;26.85;19.52;;;7.70;99.90;;;;;;5066611;28;20643;-74
2023/02/10 12:38:32;;;;;;;37.28;20.73;;;7.80;99.90;;;;;;5068318;28;20278;-74
2023/02/10 12:41:07;;;;;;;32.13;19.45;;;7.80;99.90;;;;;;5067560;28;20195;-74
2023/02/10 12:43:59;;;;;;;30.98;18.50;;;7.80;99.90;;;;;;5069961;28;20194;-75
2023/02/10 12:46:34;;;;;;;33.17;19.17;;;7.80;99.90;;;;;;5067455;28;20225;-74
2023/02/10 12:49:22;;;;;;;37.88;19.73;;;7.80;99.90;;;;;;5062729;28;20230;-74
2023/02/10 12:52:01;;;;;;;31.00;18.08;;;7.80;99.90;;;;;;5067449;28;20543;-74
2023/02/10 12:54:35;;;;;;;32.17;18.17;;;7.80;99.90;;;;;;5065958;28;20206;-75
2023/02/10 12:57:07;;;;;;;34.60;18.65;;;7.50;99.90;;;;;;5066769;28;20523;-74
2023/02/10 12:59:38;;;;;;;29.17;19.02;;;7.70;99.90;;;;;;5067287;28;20222;-75